createdAt,value
2022-08-07T00:02:46.096Z,0
2022-08-07T00:07:48.252Z,0
2022-08-07T00:12:58.177Z,0
2022-08-07T00:28:10.830Z,0
2022-08-07T00:33:02.733Z,0
2022-08-07T00:38:06.470Z,0
2022-08-07T00:42:50.312Z,0
2022-08-07T00:48:05.555Z,0
2022-08-07T00:52:51.184Z,0
2022-08-07T00:57:55.457Z,0
2022-08-07T01:02:48.356Z,0
2022-08-07T01:07:48.330Z,0
2022-08-07T01:17:48.381Z,0
2022-08-07T01:22:54.303Z,0
2022-08-07T01:32:48.349Z,0
2022-08-07T01:42:57.102Z,0
2022-08-07T01:52:54.426Z,0
2022-08-07T01:58:01.761Z,0
2022-08-07T02:03:11.515Z,0
2022-08-07T02:07:51.367Z,0
2022-08-07T02:12:50.469Z,0
2022-08-07T02:17:51.887Z,0
2022-08-07T02:22:53.069Z,0
2022-08-07T02:27:51.161Z,0
2022-08-07T02:33:00.888Z,0
2022-08-07T02:37:48.396Z,0
2022-08-07T02:42:48.393Z,0
2022-08-07T02:47:50.606Z,0
2022-08-07T02:53:06.879Z,0
2022-08-07T02:57:48.421Z,0
2022-08-07T03:02:54.707Z,0
2022-08-07T03:08:05.471Z,0
2022-08-07T03:17:54.108Z,0
2022-08-07T03:22:52.631Z,0
2022-08-07T03:27:59.779Z,0
2022-08-07T03:37:55.071Z,0
2022-08-07T03:42:52.789Z,256
2022-08-07T03:47:52.670Z,259
2022-08-07T03:52:53.559Z,261
2022-08-07T03:58:09.154Z,264
2022-08-07T04:02:52.646Z,268
2022-08-07T04:07:52.688Z,272
2022-08-07T04:12:52.743Z,275
2022-08-07T04:18:32.115Z,281
2022-08-07T04:23:01.253Z,291
2022-08-07T04:27:58.945Z,301
2022-08-07T04:32:58.521Z,313
2022-08-07T04:38:02.760Z,322
2022-08-07T04:42:52.697Z,329
2022-08-07T04:47:56.854Z,336
2022-08-07T04:52:52.903Z,343
2022-08-07T04:58:08.290Z,347
2022-08-07T05:02:52.692Z,348
2022-08-07T05:07:55.394Z,352
2022-08-07T05:12:57.233Z,355
2022-08-07T05:17:58.315Z,359
2022-08-07T05:28:15.725Z,366
2022-08-07T05:32:58.136Z,368
2022-08-07T05:38:08.267Z,368
2022-08-07T05:42:58.168Z,369
2022-08-07T05:48:02.293Z,370
2022-08-07T05:54:08.792Z,373
2022-08-07T05:57:58.158Z,373
2022-08-07T06:02:58.148Z,375
2022-08-07T06:08:05.557Z,380
2022-08-07T06:18:00.756Z,387
2022-08-07T06:23:01.947Z,389
2022-08-07T06:28:01.804Z,396
2022-08-07T06:32:58.142Z,398
2022-08-07T06:48:00.388Z,410
2022-08-07T06:52:58.498Z,412
2022-08-07T06:58:02.170Z,428
2022-08-07T07:03:00.694Z,442
2022-08-07T07:08:04.089Z,452
2022-08-07T07:12:58.129Z,468
2022-08-07T07:18:00.156Z,481
2022-08-07T07:28:02.898Z,502
2022-08-07T07:33:00.195Z,508
2022-08-07T07:38:04.604Z,529
2022-08-07T07:43:02.376Z,562
2022-08-07T07:48:00.167Z,595
2022-08-07T07:53:03.215Z,639
2022-08-07T07:58:00.197Z,687
2022-08-07T08:03:05.114Z,746
2022-08-07T08:08:02.348Z,813
2022-08-07T08:13:04.470Z,864
2022-08-07T08:18:17.125Z,906
2022-08-07T08:23:00.294Z,942
2022-08-07T08:28:03.486Z,986
2022-08-07T08:33:00.244Z,1075
2022-08-07T08:38:03.723Z,1125
2022-08-07T08:43:00.166Z,1247
2022-08-07T08:48:00.167Z,1287
2022-08-07T08:53:08.915Z,1463
2022-08-07T08:58:00.192Z,1782
2022-08-07T09:03:02.252Z,3465
2022-08-07T09:08:05.459Z,11412
2022-08-07T09:13:00.234Z,10467
2022-08-07T09:18:06.017Z,12958
2022-08-07T09:24:29.747Z,9315
2022-08-07T09:28:02.884Z,12145
2022-08-07T09:33:05.174Z,10979
2022-08-07T09:48:05.096Z,13068
2022-08-07T09:53:01.051Z,12082
2022-08-07T09:58:00.217Z,10516
2022-08-07T10:03:07.995Z,11625
2022-08-07T10:08:00.672Z,10780
2022-08-07T10:13:00.825Z,11838
2022-08-07T10:18:03.133Z,11496
2022-08-07T10:23:00.198Z,13791
2022-08-07T10:28:00.223Z,10647
2022-08-07T10:33:00.302Z,11199
2022-08-07T10:38:09.670Z,11935
2022-08-07T10:43:00.216Z,12762
2022-08-07T10:48:03.692Z,11358
2022-08-07T10:53:02.679Z,11399
2022-08-07T10:58:00.262Z,11426
2022-08-07T11:03:00.268Z,11485
2022-08-07T11:08:02.928Z,12194
2022-08-07T11:13:02.534Z,11115
2022-08-07T11:18:03.518Z,8455
2022-08-07T11:23:01.370Z,1963
2022-08-07T11:33:00.243Z,1397
2022-08-07T11:38:10.612Z,1266
2022-08-07T11:43:00.236Z,1226
2022-08-07T11:48:05.041Z,1063
2022-08-07T11:53:00.929Z,1052
2022-08-07T11:58:04.348Z,989
2022-08-07T12:03:04.294Z,922
2022-08-07T12:08:06.241Z,912
2022-08-07T12:13:11.466Z,834
2022-08-07T12:18:08.102Z,805
2022-08-07T12:23:08.954Z,821
2022-08-07T12:28:10.006Z,778
2022-08-07T12:33:09.418Z,754
2022-08-07T12:38:10.431Z,744
2022-08-07T12:43:09.293Z,736
2022-08-07T12:48:04.270Z,743
2022-08-07T12:53:05.149Z,753
2022-08-07T12:58:04.296Z,759
2022-08-07T13:03:06.850Z,770
2022-08-07T13:08:11.787Z,792
2022-08-07T13:13:04.289Z,787
2022-08-07T13:18:04.268Z,797
2022-08-07T13:23:09.750Z,784
2022-08-07T13:28:13.182Z,768
2022-08-07T13:33:04.336Z,768
2022-08-07T13:38:05.360Z,765
2022-08-07T13:43:04.307Z,749
2022-08-07T13:48:08.630Z,739
2022-08-07T13:53:14.405Z,723
2022-08-07T13:58:08.293Z,668
2022-08-07T14:03:04.355Z,649
2022-08-07T14:08:04.306Z,626
2022-08-07T14:13:04.267Z,599
2022-08-07T14:18:13.333Z,611
2022-08-07T14:23:04.431Z,643
2022-08-07T14:28:10.247Z,614
2022-08-07T14:33:04.971Z,636
2022-08-07T14:38:06.426Z,629
2022-08-07T14:43:56.254Z,631
2022-08-07T14:48:04.442Z,695
2022-08-07T14:53:08.293Z,699
2022-08-07T14:58:04.819Z,707
2022-08-07T15:08:04.382Z,711
2022-08-07T15:13:06.060Z,726
2022-08-07T15:18:04.432Z,753
2022-08-07T15:23:15.070Z,836
2022-08-07T15:28:33.230Z,793
2022-08-07T15:33:19.267Z,779
2022-08-07T15:38:18.455Z,801
2022-08-07T15:43:04.369Z,839
2022-08-07T15:48:04.639Z,871
2022-08-07T15:53:16.513Z,846
2022-08-07T15:58:04.423Z,825
2022-08-07T16:03:04.348Z,812
2022-08-07T16:08:28.721Z,760
2022-08-07T16:13:17.712Z,754
2022-08-07T16:18:04.397Z,738
2022-08-07T16:23:10.014Z,719
2022-08-07T16:28:04.369Z,706
2022-08-07T16:34:01.163Z,682
2022-08-07T16:38:09.468Z,657
2022-08-07T16:43:04.393Z,661
2022-08-07T16:48:08.937Z,653
2022-08-07T16:53:27.014Z,638
2022-08-07T16:58:04.423Z,608
2022-08-07T17:08:04.366Z,613
2022-08-07T17:13:04.374Z,576
2022-08-07T17:18:04.383Z,551
2022-08-07T17:23:08.699Z,517
2022-08-07T17:28:06.683Z,477
2022-08-07T17:33:04.388Z,447
2022-08-07T17:38:09.806Z,419
2022-08-07T17:43:07.353Z,404
2022-08-07T17:48:04.457Z,386
2022-08-07T17:54:01.883Z,370
2022-08-07T17:58:06.407Z,360
2022-08-07T18:03:05.401Z,359
2022-08-07T18:08:04.358Z,347
2022-08-07T18:13:04.416Z,323
2022-08-07T18:18:33.294Z,317
2022-08-07T18:23:06.842Z,307
2022-08-07T18:28:07.218Z,300
2022-08-07T18:38:54.727Z,293
2022-08-07T18:43:06.901Z,282
2022-08-07T18:48:06.821Z,273
2022-08-07T18:53:12.493Z,272
2022-08-07T18:58:09.834Z,263
2022-08-07T19:03:11.749Z,258
2022-08-07T19:08:06.921Z,0
2022-08-07T19:13:10.001Z,0
2022-08-07T19:18:09.221Z,0
2022-08-07T19:23:17.671Z,0
2022-08-07T19:28:31.182Z,0
2022-08-07T19:33:10.415Z,0
2022-08-07T19:38:06.909Z,0
2022-08-07T19:43:06.910Z,0
2022-08-07T19:48:18.060Z,0
2022-08-07T19:54:30.208Z,0
2022-08-07T19:58:12.844Z,0
2022-08-07T20:03:32.774Z,0
2022-08-07T20:08:06.949Z,0
2022-08-07T20:13:15.967Z,0
2022-08-07T20:23:11.097Z,0
2022-08-07T20:28:07.022Z,0
2022-08-07T20:33:09.022Z,0
2022-08-07T20:38:07.187Z,0
2022-08-07T20:43:09.773Z,0
2022-08-07T20:58:12.324Z,0
2022-08-07T21:03:06.918Z,0
2022-08-07T21:08:06.944Z,0
2022-08-07T21:13:06.894Z,0
2022-08-07T21:18:17.578Z,0
2022-08-07T21:23:07.548Z,0
2022-08-07T21:28:07.810Z,0
2022-08-07T21:33:06.904Z,0
2022-08-07T21:38:06.922Z,0
2022-08-07T21:43:06.879Z,0
2022-08-07T21:48:06.892Z,0
2022-08-07T21:53:07.617Z,0
2022-08-07T21:58:06.959Z,0
2022-08-07T22:03:06.900Z,0
2022-08-07T22:08:06.893Z,0
2022-08-07T22:13:09.112Z,0
2022-08-07T22:18:06.959Z,0
2022-08-07T22:23:06.970Z,0
2022-08-07T22:28:30.081Z,0
2022-08-07T22:33:06.916Z,0
2022-08-07T22:38:07.623Z,0
2022-08-07T22:43:06.936Z,0
2022-08-07T22:48:13.477Z,0
2022-08-07T22:53:07.449Z,0
2022-08-07T22:58:06.930Z,0
2022-08-07T23:03:09.112Z,0
2022-08-07T23:08:07.244Z,0
2022-08-07T23:13:06.939Z,0
2022-08-07T23:18:06.934Z,0
2022-08-07T23:23:06.975Z,0
2022-08-07T23:28:20.968Z,0
2022-08-07T23:34:24.521Z,0
2022-08-07T23:38:06.928Z,0
2022-08-07T23:43:07.722Z,0
2022-08-07T23:48:06.936Z,0
2022-08-07T23:53:11.938Z,0
2022-08-07T23:58:06.937Z,0
